sensor_id;sensor_type;location;lat;lon;timestamp;P1;durP1;ratioP1;P2;durP2;ratioP2
8654;SDS011;13500;52.514;13.462;2023-02-22T00:00:57;21.60;;;5.70;;
8654;SDS011;13500;52.514;13.462;2023-02-22T00:03:29;25.67;;;5.43;;
8654;SDS011;13500;52.514;13.462;2023-02-22T00:05:59;17.33;;;4.77;;
8654;SDS011;13500;52.514;13.462;2023-02-22T00:08:30;21.00;;;5.07;;
8654;SDS011;13500;52.514;13.462;2023-02-22T00:11:00;20.10;;;5.30;;
8654;SDS011;13500;52.514;13.462;2023-02-22T00:13:30;19.47;;;5.37;;
8654;SDS011;13500;52.514;13.462;2023-02-22T00:15:59;25.30;;;5.73;;
8654;SDS011;13500;52.514;13.462;2023-02-22T00:18:27;21.13;;;5.00;;
8654;SDS011;13500;52.514;13.462;2023-02-22T00:20:57;17.03;;;5.00;;
8654;SDS011;13500;52.514;13.462;2023-02-22T00:23:27;18.13;;;5.43;;
8654;SDS011;13500;52.514;13.462;2023-02-22T00:25:59;26.90;;;6.63;;
8654;SDS011;13500;52.514;13.462;2023-02-22T00:28:27;20.90;;;5.50;;
8654;SDS011;13500;52.514;13.462;2023-02-22T00:30:58;19.27;;;5.60;;
8654;SDS011;13500;52.514;13.462;2023-02-22T00:33:29;20.40;;;5.00;;
8654;SDS011;13500;52.514;13.462;2023-02-22T00:35:58;23.03;;;5.37;;
8654;SDS011;13500;52.514;13.462;2023-02-22T00:38:29;18.27;;;4.30;;
8654;SDS011;13500;52.514;13.462;2023-02-22T00:40:57;18.83;;;4.50;;
8654;SDS011;13500;52.514;13.462;2023-02-22T00:43:25;24.87;;;4.93;;
8654;SDS011;13500;52.514;13.462;2023-02-22T00:45:55;21.53;;;4.87;;
8654;SDS011;13500;52.514;13.462;2023-02-22T00:48:26;21.90;;;4.87;;
8654;SDS011;13500;52.514;13.462;2023-02-22T00:50:55;22.10;;;5.23;;
8654;SDS011;13500;52.514;13.462;2023-02-22T00:53:24;20.87;;;4.67;;
8654;SDS011;13500;52.514;13.462;2023-02-22T00:55:54;23.37;;;5.87;;
8654;SDS011;13500;52.514;13.462;2023-02-22T00:58:23;25.33;;;5.97;;
8654;SDS011;13500;52.514;13.462;2023-02-22T01:00:52;20.20;;;4.70;;
8654;SDS011;13500;52.514;13.462;2023-02-22T01:03:22;21.47;;;4.70;;
8654;SDS011;13500;52.514;13.462;2023-02-22T01:05:52;20.33;;;5.07;;
8654;SDS011;13500;52.514;13.462;2023-02-22T01:08:23;21.50;;;5.30;;
8654;SDS011;13500;52.514;13.462;2023-02-22T01:10:57;23.83;;;6.13;;
8654;SDS011;13500;52.514;13.462;2023-02-22T01:13:25;27.50;;;6.60;;
8654;SDS011;13500;52.514;13.462;2023-02-22T01:15:54;17.60;;;4.80;;
8654;SDS011;13500;52.514;13.462;2023-02-22T01:18:23;22.60;;;5.43;;
8654;SDS011;13500;52.514;13.462;2023-02-22T01:20:53;21.13;;;4.70;;
8654;SDS011;13500;52.514;13.462;2023-02-22T01:23:22;24.70;;;5.53;;
8654;SDS011;13500;52.514;13.462;2023-02-22T01:25:51;22.27;;;5.27;;
8654;SDS011;13500;52.514;13.462;2023-02-22T01:28:20;20.37;;;4.93;;
8654;SDS011;13500;52.514;13.462;2023-02-22T01:30:49;19.23;;;4.37;;
8654;SDS011;13500;52.514;13.462;2023-02-22T01:33:18;19.60;;;4.90;;
8654;SDS011;13500;52.514;13.462;2023-02-22T01:35:49;18.77;;;4.70;;
8654;SDS011;13500;52.514;13.462;2023-02-22T01:38:19;18.80;;;4.73;;
8654;SDS011;13500;52.514;13.462;2023-02-22T01:40:49;18.50;;;4.13;;
8654;SDS011;13500;52.514;13.462;2023-02-22T01:43:19;19.90;;;5.30;;
8654;SDS011;13500;52.514;13.462;2023-02-22T01:45:52;18.10;;;4.57;;
8654;SDS011;13500;52.514;13.462;2023-02-22T01:48:24;24.60;;;4.97;;
8654;SDS011;13500;52.514;13.462;2023-02-22T01:50:57;18.93;;;4.60;;
8654;SDS011;13500;52.514;13.462;2023-02-22T01:53:29;22.57;;;4.70;;
8654;SDS011;13500;52.514;13.462;2023-02-22T01:56:02;17.67;;;4.30;;
8654;SDS011;13500;52.514;13.462;2023-02-22T01:58:33;21.20;;;5.17;;
8654;SDS011;13500;52.514;13.462;2023-02-22T02:01:08;20.43;;;5.20;;
8654;SDS011;13500;52.514;13.462;2023-02-22T02:03:40;26.20;;;5.87;;
8654;SDS011;13500;52.514;13.462;2023-02-22T02:06:11;27.47;;;8.23;;
8654;SDS011;13500;52.514;13.462;2023-02-22T02:08:48;17.90;;;5.03;;
8654;SDS011;13500;52.514;13.462;2023-02-22T02:11:25;19.90;;;5.40;;
8654;SDS011;13500;52.514;13.462;2023-02-22T02:13:57;23.50;;;6.03;;
8654;SDS011;13500;52.514;13.462;2023-02-22T02:16:28;18.23;;;5.03;;
8654;SDS011;13500;52.514;13.462;2023-02-22T02:19:02;23.77;;;5.70;;
8654;SDS011;13500;52.514;13.462;2023-02-22T02:21:38;18.17;;;5.90;;
8654;SDS011;13500;52.514;13.462;2023-02-22T02:24:25;23.90;;;6.40;;
8654;SDS011;13500;52.514;13.462;2023-02-22T02:27:19;18.93;;;5.60;;
8654;SDS011;13500;52.514;13.462;2023-02-22T02:30:00;26.23;;;6.13;;
8654;SDS011;13500;52.514;13.462;2023-02-22T02:32:46;20.57;;;5.60;;
8654;SDS011;13500;52.514;13.462;2023-02-22T02:35:19;20.43;;;5.70;;
8654;SDS011;13500;52.514;13.462;2023-02-22T02:37:53;19.47;;;4.90;;
8654;SDS011;13500;52.514;13.462;2023-02-22T02:40:24;23.83;;;5.27;;
8654;SDS011;13500;52.514;13.462;2023-02-22T02:42:58;27.60;;;6.30;;
8654;SDS011;13500;52.514;13.462;2023-02-22T02:45:28;23.20;;;5.30;;
8654;SDS011;13500;52.514;13.462;2023-02-22T02:48:01;21.13;;;5.90;;
8654;SDS011;13500;52.514;13.462;2023-02-22T02:50:32;23.10;;;5.87;;
8654;SDS011;13500;52.514;13.462;2023-02-22T02:53:04;19.27;;;5.07;;
8654;SDS011;13500;52.514;13.462;2023-02-22T02:55:35;18.83;;;5.07;;
8654;SDS011;13500;52.514;13.462;2023-02-22T02:58:05;22.23;;;5.90;;
8654;SDS011;13500;52.514;13.462;2023-02-22T03:00:36;22.70;;;5.80;;
8654;SDS011;13500;52.514;13.462;2023-02-22T03:03:13;21.70;;;5.60;;
8654;SDS011;13500;52.514;13.462;2023-02-22T03:05:54;20.03;;;5.73;;
8654;SDS011;13500;52.514;13.462;2023-02-22T03:08:39;18.40;;;5.03;;
8654;SDS011;13500;52.514;13.462;2023-02-22T03:11:12;18.33;;;5.47;;
8654;SDS011;13500;52.514;13.462;2023-02-22T03:13:48;19.43;;;5.90;;
8654;SDS011;13500;52.514;13.462;2023-02-22T03:16:24;19.37;;;5.27;;
8654;SDS011;13500;52.514;13.462;2023-02-22T03:19:03;16.87;;;4.77;;
8654;SDS011;13500;52.514;13.462;2023-02-22T03:21:36;23.93;;;5.30;;
8654;SDS011;13500;52.514;13.462;2023-02-22T03:24:10;22.37;;;5.67;;
8654;SDS011;13500;52.514;13.462;2023-02-22T03:26:45;21.43;;;4.93;;
8654;SDS011;13500;52.514;13.462;2023-02-22T03:29:19;21.07;;;5.43;;
8654;SDS011;13500;52.514;13.462;2023-02-22T03:31:59;21.27;;;6.17;;
8654;SDS011;13500;52.514;13.462;2023-02-22T03:34:38;19.30;;;5.03;;
8654;SDS011;13500;52.514;13.462;2023-02-22T03:37:10;19.97;;;5.30;;
8654;SDS011;13500;52.514;13.462;2023-02-22T03:39:42;19.23;;;5.23;;
8654;SDS011;13500;52.514;13.462;2023-02-22T03:42:16;23.47;;;6.10;;
8654;SDS011;13500;52.514;13.462;2023-02-22T03:44:47;26.37;;;6.70;;
8654;SDS011;13500;52.514;13.462;2023-02-22T03:47:17;21.83;;;6.63;;
8654;SDS011;13500;52.514;13.462;2023-02-22T03:49:54;27.53;;;7.33;;
8654;SDS011;13500;52.514;13.462;2023-02-22T03:52:24;26.87;;;7.73;;
8654;SDS011;13500;52.514;13.462;2023-02-22T03:54:52;19.30;;;6.70;;
8654;SDS011;13500;52.514;13.462;2023-02-22T03:57:23;27.37;;;7.53;;
8654;SDS011;13500;52.514;13.462;2023-02-22T04:00:03;15.47;;;6.17;;
8654;SDS011;13500;52.514;13.462;2023-02-22T04:02:38;25.30;;;6.60;;
8654;SDS011;13500;52.514;13.462;2023-02-22T04:05:11;23.57;;;7.37;;
8654;SDS011;13500;52.514;13.462;2023-02-22T04:07:40;21.37;;;6.47;;
8654;SDS011;13500;52.514;13.462;2023-02-22T04:10:12;19.13;;;6.03;;
8654;SDS011;13500;52.514;13.462;2023-02-22T04:12:44;24.23;;;6.20;;
8654;SDS011;13500;52.514;13.462;2023-02-22T04:15:21;20.87;;;6.47;;
8654;SDS011;13500;52.514;13.462;2023-02-22T04:17:59;26.97;;;7.13;;
8654;SDS011;13500;52.514;13.462;2023-02-22T04:20:30;20.73;;;6.37;;
8654;SDS011;13500;52.514;13.462;2023-02-22T04:23:23;25.60;;;7.27;;
8654;SDS011;13500;52.514;13.462;2023-02-22T04:25:52;23.90;;;6.37;;
8654;SDS011;13500;52.514;13.462;2023-02-22T04:28:21;21.73;;;6.77;;
8654;SDS011;13500;52.514;13.462;2023-02-22T04:30:55;23.03;;;6.87;;
8654;SDS011;13500;52.514;13.462;2023-02-22T04:33:25;26.30;;;6.00;;
8654;SDS011;13500;52.514;13.462;2023-02-22T04:35:55;20.63;;;6.43;;
8654;SDS011;13500;52.514;13.462;2023-02-22T04:38:25;19.93;;;6.27;;
8654;SDS011;13500;52.514;13.462;2023-02-22T04:40:56;22.63;;;6.47;;
8654;SDS011;13500;52.514;13.462;2023-02-22T04:43:25;18.17;;;5.70;;
8654;SDS011;13500;52.514;13.462;2023-02-22T04:46:02;22.67;;;6.33;;
8654;SDS011;13500;52.514;13.462;2023-02-22T04:48:31;18.27;;;6.03;;
8654;SDS011;13500;52.514;13.462;2023-02-22T04:51:00;17.27;;;5.57;;
8654;SDS011;13500;52.514;13.462;2023-02-22T04:53:31;28.23;;;6.37;;
8654;SDS011;13500;52.514;13.462;2023-02-22T04:56:00;20.43;;;7.03;;
8654;SDS011;13500;52.514;13.462;2023-02-22T04:58:30;26.50;;;6.77;;
8654;SDS011;13500;52.514;13.462;2023-02-22T05:00:58;22.10;;;6.23;;
8654;SDS011;13500;52.514;13.462;2023-02-22T05:03:26;27.63;;;6.70;;
8654;SDS011;13500;52.514;13.462;2023-02-22T05:05:56;19.03;;;5.83;;
8654;SDS011;13500;52.514;13.462;2023-02-22T05:08:25;23.30;;;6.37;;
8654;SDS011;13500;52.514;13.462;2023-02-22T05:10:55;22.93;;;6.00;;
8654;SDS011;13500;52.514;13.462;2023-02-22T05:13:24;25.33;;;6.37;;
8654;SDS011;13500;52.514;13.462;2023-02-22T05:15:53;25.93;;;6.20;;
8654;SDS011;13500;52.514;13.462;2023-02-22T05:18:21;23.60;;;6.27;;
8654;SDS011;13500;52.514;13.462;2023-02-22T05:20:49;22.83;;;6.47;;
8654;SDS011;13500;52.514;13.462;2023-02-22T05:23:17;20.47;;;6.40;;
8654;SDS011;13500;52.514;13.462;2023-02-22T05:25:48;23.07;;;6.10;;
8654;SDS011;13500;52.514;13.462;2023-02-22T05:28:18;25.00;;;6.03;;
8654;SDS011;13500;52.514;13.462;2023-02-22T05:30:46;24.20;;;6.20;;
8654;SDS011;13500;52.514;13.462;2023-02-22T05:33:14;22.77;;;6.03;;
8654;SDS011;13500;52.514;13.462;2023-02-22T05:35:42;21.40;;;5.50;;
8654;SDS011;13500;52.514;13.462;2023-02-22T05:38:13;21.17;;;5.97;;
8654;SDS011;13500;52.514;13.462;2023-02-22T05:40:42;25.47;;;5.90;;
8654;SDS011;13500;52.514;13.462;2023-02-22T05:43:12;20.97;;;5.70;;
8654;SDS011;13500;52.514;13.462;2023-02-22T05:45:41;23.83;;;6.27;;
8654;SDS011;13500;52.514;13.462;2023-02-22T05:48:09;19.73;;;5.53;;
8654;SDS011;13500;52.514;13.462;2023-02-22T05:50:38;17.50;;;6.07;;
8654;SDS011;13500;52.514;13.462;2023-02-22T05:53:07;19.47;;;6.20;;
8654;SDS011;13500;52.514;13.462;2023-02-22T05:55:38;27.27;;;7.07;;
8654;SDS011;13500;52.514;13.462;2023-02-22T05:58:07;22.10;;;6.87;;
8654;SDS011;13500;52.514;13.462;2023-02-22T06:00:37;24.03;;;8.33;;
8654;SDS011;13500;52.514;13.462;2023-02-22T06:03:06;28.37;;;7.40;;
8654;SDS011;13500;52.514;13.462;2023-02-22T06:05:37;26.63;;;7.50;;
8654;SDS011;13500;52.514;13.462;2023-02-22T06:08:08;22.40;;;7.10;;
8654;SDS011;13500;52.514;13.462;2023-02-22T06:10:37;18.90;;;6.40;;
8654;SDS011;13500;52.514;13.462;2023-02-22T06:13:06;26.00;;;7.43;;
8654;SDS011;13500;52.514;13.462;2023-02-22T06:15:41;26.27;;;8.47;;
8654;SDS011;13500;52.514;13.462;2023-02-22T06:18:10;20.13;;;7.03;;
8654;SDS011;13500;52.514;13.462;2023-02-22T06:20:39;21.70;;;6.80;;
8654;SDS011;13500;52.514;13.462;2023-02-22T06:23:08;21.57;;;7.07;;
8654;SDS011;13500;52.514;13.462;2023-02-22T06:25:37;21.63;;;6.00;;
8654;SDS011;13500;52.514;13.462;2023-02-22T06:28:08;20.50;;;6.50;;
8654;SDS011;13500;52.514;13.462;2023-02-22T06:30:36;27.97;;;7.00;;
8654;SDS011;13500;52.514;13.462;2023-02-22T06:33:05;19.63;;;5.87;;
8654;SDS011;13500;52.514;13.462;2023-02-22T06:35:35;18.53;;;6.10;;
8654;SDS011;13500;52.514;13.462;2023-02-22T06:38:05;18.07;;;5.33;;
8654;SDS011;13500;52.514;13.462;2023-02-22T06:40:34;20.70;;;5.47;;
8654;SDS011;13500;52.514;13.462;2023-02-22T06:43:05;23.47;;;6.10;;
8654;SDS011;13500;52.514;13.462;2023-02-22T06:45:33;22.53;;;5.50;;
8654;SDS011;13500;52.514;13.462;2023-02-22T06:48:02;23.33;;;6.43;;
8654;SDS011;13500;52.514;13.462;2023-02-22T06:50:36;25.47;;;6.10;;
8654;SDS011;13500;52.514;13.462;2023-02-22T06:53:04;19.87;;;5.40;;
8654;SDS011;13500;52.514;13.462;2023-02-22T06:55:35;21.50;;;5.50;;
8654;SDS011;13500;52.514;13.462;2023-02-22T06:58:04;24.03;;;6.60;;
8654;SDS011;13500;52.514;13.462;2023-02-22T07:00:34;21.13;;;6.10;;
8654;SDS011;13500;52.514;13.462;2023-02-22T07:03:04;25.77;;;8.37;;
8654;SDS011;13500;52.514;13.462;2023-02-22T07:05:33;28.53;;;11.30;;
8654;SDS011;13500;52.514;13.462;2023-02-22T07:08:05;33.60;;;15.93;;
8654;SDS011;13500;52.514;13.462;2023-02-22T07:10:35;34.27;;;13.47;;
8654;SDS011;13500;52.514;13.462;2023-02-22T07:13:05;29.77;;;13.97;;
8654;SDS011;13500;52.514;13.462;2023-02-22T07:15:35;25.17;;;12.73;;
8654;SDS011;13500;52.514;13.462;2023-02-22T07:18:17;30.30;;;11.80;;
8654;SDS011;13500;52.514;13.462;2023-02-22T07:20:50;29.30;;;9.37;;
8654;SDS011;13500;52.514;13.462;2023-02-22T07:23:22;27.40;;;8.97;;
8654;SDS011;13500;52.514;13.462;2023-02-22T07:25:50;25.83;;;6.83;;
8654;SDS011;13500;52.514;13.462;2023-02-22T07:28:19;27.43;;;7.07;;
8654;SDS011;13500;52.514;13.462;2023-02-22T07:30:49;26.17;;;6.50;;
8654;SDS011;13500;52.514;13.462;2023-02-22T07:33:17;22.03;;;7.17;;
8654;SDS011;13500;52.514;13.462;2023-02-22T07:35:50;22.97;;;6.33;;
8654;SDS011;13500;52.514;13.462;2023-02-22T07:38:18;23.87;;;6.07;;
8654;SDS011;13500;52.514;13.462;2023-02-22T07:40:48;23.17;;;6.30;;
8654;SDS011;13500;52.514;13.462;2023-02-22T07:43:21;23.00;;;6.37;;
8654;SDS011;13500;52.514;13.462;2023-02-22T07:45:53;24.50;;;6.63;;
8654;SDS011;13500;52.514;13.462;2023-02-22T07:48:23;27.07;;;6.07;;
8654;SDS011;13500;52.514;13.462;2023-02-22T07:50:54;19.30;;;6.50;;
8654;SDS011;13500;52.514;13.462;2023-02-22T07:53:25;23.43;;;5.80;;
8654;SDS011;13500;52.514;13.462;2023-02-22T07:55:58;18.17;;;5.90;;
8654;SDS011;13500;52.514;13.462;2023-02-22T07:58:28;21.50;;;6.30;;
8654;SDS011;13500;52.514;13.462;2023-02-22T08:00:56;19.97;;;5.70;;
8654;SDS011;13500;52.514;13.462;2023-02-22T08:03:25;18.13;;;5.50;;
8654;SDS011;13500;52.514;13.462;2023-02-22T08:05:54;19.60;;;6.27;;
8654;SDS011;13500;52.514;13.462;2023-02-22T08:08:25;25.47;;;6.40;;
8654;SDS011;13500;52.514;13.462;2023-02-22T08:10:54;22.57;;;6.20;;
8654;SDS011;13500;52.514;13.462;2023-02-22T08:13:25;19.47;;;5.63;;
8654;SDS011;13500;52.514;13.462;2023-02-22T08:15:54;23.03;;;6.37;;
8654;SDS011;13500;52.514;13.462;2023-02-22T08:18:23;19.30;;;5.60;;
8654;SDS011;13500;52.514;13.462;2023-02-22T08:20:53;23.00;;;5.87;;
8654;SDS011;13500;52.514;13.462;2023-02-22T08:23:22;22.37;;;6.20;;
8654;SDS011;13500;52.514;13.462;2023-02-22T08:25:54;20.73;;;5.37;;
8654;SDS011;13500;52.514;13.462;2023-02-22T08:28:22;21.13;;;6.23;;
8654;SDS011;13500;52.514;13.462;2023-02-22T08:30:53;22.13;;;5.57;;
8654;SDS011;13500;52.514;13.462;2023-02-22T08:33:21;22.77;;;6.03;;
8654;SDS011;13500;52.514;13.462;2023-02-22T08:35:51;23.33;;;6.37;;
8654;SDS011;13500;52.514;13.462;2023-02-22T08:38:20;27.73;;;6.67;;
8654;SDS011;13500;52.514;13.462;2023-02-22T08:40:51;26.10;;;6.40;;
8654;SDS011;13500;52.514;13.462;2023-02-22T08:43:20;24.37;;;5.87;;
8654;SDS011;13500;52.514;13.462;2023-02-22T08:45:51;22.30;;;5.67;;
8654;SDS011;13500;52.514;13.462;2023-02-22T08:48:23;23.50;;;6.33;;
8654;SDS011;13500;52.514;13.462;2023-02-22T08:50:53;23.87;;;6.03;;
8654;SDS011;13500;52.514;13.462;2023-02-22T08:53:22;22.50;;;6.40;;
8654;SDS011;13500;52.514;13.462;2023-02-22T08:55:50;22.87;;;6.23;;
8654;SDS011;13500;52.514;13.462;2023-02-22T08:58:19;23.93;;;6.27;;
8654;SDS011;13500;52.514;13.462;2023-02-22T09:00:48;24.40;;;6.50;;
8654;SDS011;13500;52.514;13.462;2023-02-22T09:03:18;21.67;;;6.70;;
8654;SDS011;13500;52.514;13.462;2023-02-22T09:05:47;25.80;;;7.17;;
8654;SDS011;13500;52.514;13.462;2023-02-22T09:08:16;20.33;;;6.17;;
8654;SDS011;13500;52.514;13.462;2023-02-22T09:10:45;21.37;;;6.97;;
8654;SDS011;13500;52.514;13.462;2023-02-22T09:13:13;24.77;;;6.03;;
8654;SDS011;13500;52.514;13.462;2023-02-22T09:15:41;24.17;;;6.70;;
8654;SDS011;13500;52.514;13.462;2023-02-22T09:18:14;21.77;;;6.17;;
8654;SDS011;13500;52.514;13.462;2023-02-22T09:20:45;21.47;;;5.57;;
8654;SDS011;13500;52.514;13.462;2023-02-22T09:23:13;25.33;;;6.37;;
8654;SDS011;13500;52.514;13.462;2023-02-22T09:25:41;23.40;;;6.10;;
8654;SDS011;13500;52.514;13.462;2023-02-22T09:28:09;16.33;;;5.87;;
8654;SDS011;13500;52.514;13.462;2023-02-22T09:30:38;20.27;;;6.20;;
8654;SDS011;13500;52.514;13.462;2023-02-22T09:33:07;21.97;;;6.63;;
8654;SDS011;13500;52.514;13.462;2023-02-22T09:35:37;27.93;;;7.60;;
8654;SDS011;13500;52.514;13.462;2023-02-22T09:38:11;22.40;;;7.63;;
8654;SDS011;13500;52.514;13.462;2023-02-22T09:40:41;20.07;;;6.50;;
8654;SDS011;13500;52.514;13.462;2023-02-22T09:43:16;16.70;;;6.40;;
8654;SDS011;13500;52.514;13.462;2023-02-22T09:45:56;19.90;;;6.33;;
8654;SDS011;13500;52.514;13.462;2023-02-22T09:48:39;24.47;;;6.23;;
8654;SDS011;13500;52.514;13.462;2023-02-22T09:51:18;20.60;;;5.33;;
8654;SDS011;13500;52.514;13.462;2023-02-22T09:53:50;24.30;;;6.07;;
8654;SDS011;13500;52.514;13.462;2023-02-22T09:56:24;25.37;;;6.60;;
8654;SDS011;13500;52.514;13.462;2023-02-22T09:58:53;24.13;;;6.80;;
8654;SDS011;13500;52.514;13.462;2023-02-22T10:01:25;21.87;;;6.30;;
8654;SDS011;13500;52.514;13.462;2023-02-22T10:04:00;21.80;;;5.40;;
8654;SDS011;13500;52.514;13.462;2023-02-22T10:06:32;19.50;;;5.47;;
8654;SDS011;13500;52.514;13.462;2023-02-22T10:09:03;21.87;;;5.97;;
8654;SDS011;13500;52.514;13.462;2023-02-22T10:11:42;20.00;;;5.20;;
8654;SDS011;13500;52.514;13.462;2023-02-22T10:17:04;19.60;;;6.50;;
8654;SDS011;13500;52.514;13.462;2023-02-22T10:19:39;19.87;;;6.67;;
8654;SDS011;13500;52.514;13.462;2023-02-22T10:22:17;21.40;;;5.67;;
8654;SDS011;13500;52.514;13.462;2023-02-22T10:24:55;25.10;;;5.87;;
8654;SDS011;13500;52.514;13.462;2023-02-22T10:27:28;14.87;;;6.17;;
8654;SDS011;13500;52.514;13.462;2023-02-22T10:30:01;21.70;;;5.90;;
8654;SDS011;13500;52.514;13.462;2023-02-22T10:32:51;17.73;;;5.07;;
8654;SDS011;13500;52.514;13.462;2023-02-22T10:35:23;24.60;;;5.23;;
8654;SDS011;13500;52.514;13.462;2023-02-22T10:37:53;19.87;;;5.30;;
8654;SDS011;13500;52.514;13.462;2023-02-22T10:40:26;17.83;;;5.17;;
8654;SDS011;13500;52.514;13.462;2023-02-22T10:42:59;20.67;;;5.10;;
8654;SDS011;13500;52.514;13.462;2023-02-22T10:45:31;19.77;;;5.57;;
8654;SDS011;13500;52.514;13.462;2023-02-22T10:48:04;15.90;;;4.93;;
8654;SDS011;13500;52.514;13.462;2023-02-22T10:50:39;17.87;;;4.80;;
8654;SDS011;13500;52.514;13.462;2023-02-22T10:53:09;14.20;;;4.40;;
8654;SDS011;13500;52.514;13.462;2023-02-22T10:58:45;28.70;;;6.57;;
8654;SDS011;13500;52.514;13.462;2023-02-22T11:01:18;19.20;;;4.90;;
8654;SDS011;13500;52.514;13.462;2023-02-22T11:03:59;16.67;;;4.93;;
8654;SDS011;13500;52.514;13.462;2023-02-22T11:06:33;18.27;;;5.10;;
8654;SDS011;13500;52.514;13.462;2023-02-22T11:09:05;17.40;;;4.47;;
8654;SDS011;13500;52.514;13.462;2023-02-22T11:11:38;16.20;;;4.80;;
8654;SDS011;13500;52.514;13.462;2023-02-22T11:14:10;18.27;;;4.63;;
8654;SDS011;13500;52.514;13.462;2023-02-22T11:16:41;16.53;;;4.20;;
8654;SDS011;13500;52.514;13.462;2023-02-22T11:19:18;13.77;;;3.90;;
8654;SDS011;13500;52.514;13.462;2023-02-22T11:21:50;16.63;;;4.67;;
8654;SDS011;13500;52.514;13.462;2023-02-22T11:24:21;14.30;;;4.33;;
8654;SDS011;13500;52.514;13.462;2023-02-22T11:27:01;16.67;;;4.80;;
8654;SDS011;13500;52.514;13.462;2023-02-22T11:29:32;21.37;;;4.67;;
8654;SDS011;13500;52.514;13.462;2023-02-22T11:32:03;16.00;;;3.97;;
8654;SDS011;13500;52.514;13.462;2023-02-22T11:34:40;19.83;;;4.77;;
8654;SDS011;13500;52.514;13.462;2023-02-22T11:37:17;20.10;;;5.20;;
8654;SDS011;13500;52.514;13.462;2023-02-22T11:40:03;20.53;;;4.13;;
8654;SDS011;13500;52.514;13.462;2023-02-22T11:42:37;20.20;;;5.20;;
8654;SDS011;13500;52.514;13.462;2023-02-22T11:45:09;15.07;;;4.63;;
8654;SDS011;13500;52.514;13.462;2023-02-22T11:47:46;16.60;;;4.63;;
8654;SDS011;13500;52.514;13.462;2023-02-22T11:50:22;20.00;;;4.70;;
8654;SDS011;13500;52.514;13.462;2023-02-22T11:52:58;19.60;;;4.67;;
8654;SDS011;13500;52.514;13.462;2023-02-22T11:55:38;17.77;;;4.63;;
8654;SDS011;13500;52.514;13.462;2023-02-22T11:58:22;24.73;;;7.17;;
8654;SDS011;13500;52.514;13.462;2023-02-22T12:00:59;15.20;;;4.50;;
8654;SDS011;13500;52.514;13.462;2023-02-22T12:03:45;19.03;;;4.70;;
8654;SDS011;13500;52.514;13.462;2023-02-22T12:06:42;15.87;;;4.30;;
8654;SDS011;13500;52.514;13.462;2023-02-22T12:09:14;23.57;;;4.53;;
8654;SDS011;13500;52.514;13.462;2023-02-22T12:11:51;18.53;;;4.80;;
8654;SDS011;13500;52.514;13.462;2023-02-22T12:14:32;16.77;;;4.57;;
8654;SDS011;13500;52.514;13.462;2023-02-22T12:17:16;18.17;;;4.77;;
8654;SDS011;13500;52.514;13.462;2023-02-22T12:19:49;19.90;;;4.80;;
8654;SDS011;13500;52.514;13.462;2023-02-22T12:22:20;17.57;;;4.20;;
8654;SDS011;13500;52.514;13.462;2023-02-22T12:24:53;16.30;;;4.03;;
8654;SDS011;13500;52.514;13.462;2023-02-22T12:27:35;16.53;;;4.30;;
8654;SDS011;13500;52.514;13.462;2023-02-22T12:30:09;21.43;;;4.43;;
8654;SDS011;13500;52.514;13.462;2023-02-22T12:32:42;15.73;;;4.07;;
8654;SDS011;13500;52.514;13.462;2023-02-22T12:35:18;17.70;;;4.83;;
8654;SDS011;13500;52.514;13.462;2023-02-22T12:37:52;13.03;;;3.83;;
8654;SDS011;13500;52.514;13.462;2023-02-22T12:40:26;16.03;;;3.97;;
8654;SDS011;13500;52.514;13.462;2023-02-22T12:43:01;20.13;;;5.10;;
8654;SDS011;13500;52.514;13.462;2023-02-22T12:45:35;14.77;;;4.10;;
8654;SDS011;13500;52.514;13.462;2023-02-22T12:48:30;15.67;;;4.33;;
8654;SDS011;13500;52.514;13.462;2023-02-22T12:51:03;17.93;;;4.17;;
8654;SDS011;13500;52.514;13.462;2023-02-22T12:53:43;15.20;;;3.80;;
8654;SDS011;13500;52.514;13.462;2023-02-22T12:56:21;18.30;;;4.43;;
8654;SDS011;13500;52.514;13.462;2023-02-22T12:58:55;14.17;;;4.10;;
8654;SDS011;13500;52.514;13.462;2023-02-22T13:01:31;14.53;;;4.33;;
8654;SDS011;13500;52.514;13.462;2023-02-22T13:04:03;16.83;;;6.20;;
8654;SDS011;13500;52.514;13.462;2023-02-22T13:06:49;17.53;;;4.67;;
8654;SDS011;13500;52.514;13.462;2023-02-22T13:09:56;17.80;;;4.53;;
8654;SDS011;13500;52.514;13.462;2023-02-22T13:12:36;19.57;;;4.33;;
8654;SDS011;13500;52.514;13.462;2023-02-22T13:15:09;20.37;;;4.67;;
8654;SDS011;13500;52.514;13.462;2023-02-22T13:17:47;18.70;;;4.23;;
8654;SDS011;13500;52.514;13.462;2023-02-22T13:20:20;17.60;;;4.60;;
8654;SDS011;13500;52.514;13.462;2023-02-22T13:22:51;19.43;;;4.37;;
8654;SDS011;13500;52.514;13.462;2023-02-22T13:25:23;15.67;;;4.00;;
8654;SDS011;13500;52.514;13.462;2023-02-22T13:27:57;18.47;;;3.93;;
8654;SDS011;13500;52.514;13.462;2023-02-22T13:30:34;13.63;;;3.93;;
8654;SDS011;13500;52.514;13.462;2023-02-22T13:33:12;14.10;;;3.73;;
8654;SDS011;13500;52.514;13.462;2023-02-22T13:35:53;14.33;;;3.60;;
8654;SDS011;13500;52.514;13.462;2023-02-22T13:41:36;12.47;;;3.50;;
8654;SDS011;13500;52.514;13.462;2023-02-22T13:44:48;17.20;;;4.30;;
8654;SDS011;13500;52.514;13.462;2023-02-22T13:53:40;13.80;;;4.07;;
8654;SDS011;13500;52.514;13.462;2023-02-22T13:56:10;12.43;;;3.50;;
8654;SDS011;13500;52.514;13.462;2023-02-22T13:58:48;13.37;;;3.90;;
8654;SDS011;13500;52.514;13.462;2023-02-22T14:01:37;11.90;;;3.60;;
8654;SDS011;13500;52.514;13.462;2023-02-22T14:04:32;14.57;;;3.90;;
8654;SDS011;13500;52.514;13.462;2023-02-22T14:10:33;15.67;;;4.40;;
8654;SDS011;13500;52.514;13.462;2023-02-22T14:13:18;15.10;;;3.33;;
8654;SDS011;13500;52.514;13.462;2023-02-22T14:18:48;12.93;;;3.20;;
8654;SDS011;13500;52.514;13.462;2023-02-22T14:21:17;13.30;;;3.73;;
8654;SDS011;13500;52.514;13.462;2023-02-22T14:23:48;17.83;;;3.83;;
8654;SDS011;13500;52.514;13.462;2023-02-22T14:26:19;15.03;;;3.47;;
8654;SDS011;13500;52.514;13.462;2023-02-22T14:28:51;18.83;;;3.70;;
8654;SDS011;13500;52.514;13.462;2023-02-22T14:31:24;12.57;;;4.30;;
8654;SDS011;13500;52.514;13.462;2023-02-22T14:34:08;18.43;;;3.60;;
8654;SDS011;13500;52.514;13.462;2023-02-22T14:36:44;13.27;;;4.00;;
8654;SDS011;13500;52.514;13.462;2023-02-22T14:39:24;15.23;;;4.43;;
8654;SDS011;13500;52.514;13.462;2023-02-22T14:42:01;15.90;;;3.83;;
8654;SDS011;13500;52.514;13.462;2023-02-22T14:44:32;14.90;;;3.57;;
8654;SDS011;13500;52.514;13.462;2023-02-22T14:47:04;17.93;;;4.10;;
8654;SDS011;13500;52.514;13.462;2023-02-22T14:49:35;16.73;;;4.43;;
8654;SDS011;13500;52.514;13.462;2023-02-22T14:52:10;11.70;;;3.77;;
8654;SDS011;13500;52.514;13.462;2023-02-22T14:54:55;12.93;;;3.83;;
8654;SDS011;13500;52.514;13.462;2023-02-22T14:57:33;14.13;;;4.40;;
8654;SDS011;13500;52.514;13.462;2023-02-22T15:00:13;13.47;;;3.70;;
8654;SDS011;13500;52.514;13.462;2023-02-22T15:02:46;13.90;;;4.00;;
8654;SDS011;13500;52.514;13.462;2023-02-22T15:05:15;17.70;;;4.73;;
8654;SDS011;13500;52.514;13.462;2023-02-22T15:07:50;16.10;;;4.50;;
8654;SDS011;13500;52.514;13.462;2023-02-22T15:10:22;12.93;;;3.53;;
8654;SDS011;13500;52.514;13.462;2023-02-22T15:12:54;13.80;;;3.73;;
8654;SDS011;13500;52.514;13.462;2023-02-22T15:15:36;18.07;;;4.30;;
8654;SDS011;13500;52.514;13.462;2023-02-22T15:18:10;11.73;;;4.03;;
8654;SDS011;13500;52.514;13.462;2023-02-22T15:20:46;15.33;;;4.10;;
8654;SDS011;13500;52.514;13.462;2023-02-22T15:23:27;16.67;;;4.10;;
8654;SDS011;13500;52.514;13.462;2023-02-22T15:25:58;15.30;;;4.00;;
8654;SDS011;13500;52.514;13.462;2023-02-22T15:28:28;18.07;;;4.33;;